Time;durP1;ratioP1;P1;durP2;ratioP2;P2;SDS_P1;SDS_P2;PMS_P1;PMS_P2;Temp;Humidity;BMP_temperature;BMP_pressure;BME280_temperature;BME280_humidity;BME280_pressure;Samples;Min_cycle;Max_cycle;Signal;HPM_P1;HPM_P2
2024/01/17 00:00:16;;;;;;;26.83;15.18;;;;;;;-0.66;100.00;99255.66;5021561;28;20033;-75
2024/01/17 00:02:42;;;;;;;15.15;9.63;;;;;;;-0.63;100.00;99257.16;5021771;28;20048;-76
2024/01/17 00:05:11;;;;;;;12.52;7.15;;;;;;;-0.63;100.00;99255.38;5054389;28;20033;-76
2024/01/17 00:07:37;;;;;;;12.07;7.53;;;;;;;-0.64;100.00;99256.31;5038100;28;20051;-75
2024/01/17 00:10:06;;;;;;;11.35;7.30;;;;;;;-0.64;100.00;99253.69;5021262;28;20097;-76
2024/01/17 00:12:32;;;;;;;11.95;7.10;;;;;;;-0.62;100.00;99253.53;5037746;28;20028;-76
2024/01/17 00:14:58;;;;;;;12.73;7.32;;;;;;;-0.63;100.00;99244.81;5021511;28;20443;-76
2024/01/17 00:17:24;;;;;;;9.82;7.25;;;;;;;-0.62;100.00;99245.63;5021259;28;20037;-76
2024/01/17 00:19:50;;;;;;;10.32;5.72;;;;;;;-0.63;100.00;99247.44;5020947;28;20039;-76
2024/01/17 00:22:16;;;;;;;7.78;5.07;;;;;;;-0.62;100.00;99241.19;5021189;28;20072;-75
2024/01/17 00:24:42;;;;;;;8.27;4.38;;;;;;;-0.57;100.00;99244.22;5021460;28;20376;-75
2024/01/17 00:27:08;;;;;;;9.90;6.47;;;;;;;-0.50;100.00;99229.50;5038059;28;20076;-75
2024/01/17 00:29:34;;;;;;;13.50;7.60;;;;;;;-0.45;100.00;99236.97;5021077;28;20551;-75
2024/01/17 00:32:01;;;;;;;11.57;6.38;;;;;;;-0.40;100.00;99240.00;5020942;28;20056;-75
2024/01/17 00:34:27;;;;;;;13.23;8.30;;;;;;;-0.40;100.00;99240.00;5021502;28;20375;-75
2024/01/17 00:36:52;;;;;;;8.45;6.03;;;;;;;-0.43;100.00;99237.66;5020970;28;20155;-75
2024/01/17 00:39:18;;;;;;;9.25;5.85;;;;;;;-0.48;100.00;99227.53;5020735;28;20040;-75
2024/01/17 00:41:45;;;;;;;9.60;5.95;;;;;;;-0.50;100.00;99226.84;5037226;28;20041;-75
2024/01/17 00:44:15;;;;;;;9.27;5.82;;;;;;;-0.49;100.00;99225.03;5020742;28;20041;-75
2024/01/17 00:46:42;;;;;;;10.57;5.30;;;;;;;-0.56;100.00;99208.09;5038421;28;20493;-75
2024/01/17 00:49:11;;;;;;;8.75;5.72;;;;;;;-0.48;100.00;99216.97;5020934;28;20037;-75
2024/01/17 00:51:37;;;;;;;8.25;5.78;;;;;;;-0.45;100.00;99218.47;5020595;28;20106;-76
2024/01/17 00:54:03;;;;;;;8.80;5.13;;;;;;;-0.45;100.00;99207.91;5020590;28;20051;-75
2024/01/17 00:56:32;;;;;;;8.95;5.78;;;;;;;-0.43;100.00;99213.06;5020543;28;20036;-75
2024/01/17 00:58:58;;;;;;;9.35;6.00;;;;;;;-0.42;100.00;99204.16;5020976;28;20098;-75
2024/01/17 01:01:24;;;;;;;8.32;5.95;;;;;;;-0.38;100.00;99210.81;5036835;28;20033;-75
2024/01/17 01:03:50;;;;;;;10.82;5.75;;;;;;;-0.38;100.00;99201.09;5036786;28;20048;-75
2024/01/17 01:06:15;;;;;;;8.55;5.45;;;;;;;-0.36;100.00;99200.97;5020737;28;20043;-75
2024/01/17 01:08:41;;;;;;;11.30;6.47;;;;;;;-0.39;100.00;99204.72;5020385;28;20383;-75
2024/01/17 01:11:07;;;;;;;10.98;6.45;;;;;;;-0.43;100.00;99198.03;5020071;28;20383;-75
2024/01/17 01:13:33;;;;;;;10.10;6.13;;;;;;;-0.49;100.00;99199.47;5020208;28;20048;-75
2024/01/17 01:15:59;;;;;;;10.23;5.85;;;;;;;-0.61;100.00;99195.31;5020014;28;20036;-75
2024/01/17 01:18:24;;;;;;;8.60;5.68;;;;;;;-0.80;100.00;99195.34;5020194;28;20073;-75
2024/01/17 01:20:50;;;;;;;8.20;5.35;;;;;;;-1.05;100.00;99187.06;5036552;28;20079;-75
2024/01/17 01:23:16;;;;;;;7.25;5.40;;;;;;;-1.36;100.00;99187.19;5019979;28;20395;-75
2024/01/17 01:25:41;;;;;;;10.80;5.13;;;;;;;-1.64;100.00;99177.47;5052592;28;20040;-75
2024/01/17 01:28:07;;;;;;;8.52;5.72;;;;;;;-1.94;100.00;99175.75;5020035;28;20036;-75
2024/01/17 01:30:33;;;;;;;8.68;5.43;;;;;;;-2.22;100.00;99165.84;5036044;28;20087;-75
2024/01/17 01:32:58;;;;;;;9.13;5.35;;;;;;;-2.46;100.00;99173.19;5019325;28;20049;-75
2024/01/17 01:35:24;;;;;;;10.15;6.00;;;;;;;-2.65;100.00;99173.94;5019826;28;20036;-75
2024/01/17 01:37:50;;;;;;;10.95;6.93;;;;;;;-2.81;100.00;99168.31;5019847;28;20037;-75
2024/01/17 01:40:15;;;;;;;17.88;7.78;;;;;;;-2.67;100.00;99173.25;5019812;28;20048;-75
2024/01/17 01:42:44;;;;;;;9.88;6.22;;;;;;;-2.67;100.00;99171.47;5019503;28;20028;-75
2024/01/17 01:45:10;;;;;;;7.85;5.38;;;;;;;-2.67;100.00;99162.72;5019719;28;20040;-75
2024/01/17 01:47:36;;;;;;;11.75;5.10;;;;;;;-2.65;100.00;99173.94;5019646;28;20064;-75
2024/01/17 01:50:05;;;;;;;12.43;7.15;;;;;;;-2.40;100.00;99167.44;5035846;28;20029;-75
2024/01/17 01:52:33;;;;;;;22.15;11.13;;;;;;;-2.23;100.00;99160.69;5003943;28;20060;-75
2024/01/17 01:55:00;;;;;;;19.05;10.60;;;;;;;-2.22;100.00;99160.56;5035968;28;20430;-75
2024/01/17 01:57:26;;;;;;;16.20;8.88;;;;;;;-2.23;100.00;99158.06;5019495;28;20044;-75
2024/01/17 01:59:52;;;;;;;14.93;8.95;;;;;;;-2.24;100.00;99159.03;5034848;28;20040;-75
2024/01/17 02:02:21;;;;;;;21.30;11.45;;;;;;;-2.24;100.00;99153.78;5035640;28;20040;-75
2024/01/17 02:04:46;;;;;;;16.13;9.65;;;;;;;-2.25;100.00;99147.69;5019203;28;20033;-75
2024/01/17 02:07:12;;;;;;;14.38;8.70;;;;;;;-2.30;100.00;99151.66;5019446;28;20035;-75
2024/01/17 02:09:38;;;;;;;13.02;5.97;;;;;;;-2.38;100.00;99143.59;5035685;28;20036;-75
2024/01/17 02:12:05;;;;;;;11.52;6.13;;;;;;;-2.53;100.00;99143.97;5019273;28;20471;-75
2024/01/17 02:14:31;;;;;;;7.22;4.90;;;;;;;-2.71;100.00;99143.72;5035828;28;20044;-75
2024/01/17 02:16:56;;;;;;;11.65;6.03;;;;;;;-2.96;100.00;99139.72;5019247;28;20166;-75
2024/01/17 02:19:22;;;;;;;11.38;6.40;;;;;;;-3.18;100.00;99134.59;5019324;28;20045;-75
2024/01/17 02:21:48;;;;;;;8.57;4.97;;;;;;;-3.20;100.00;99133.88;5019035;28;20037;-75
2024/01/17 02:24:18;;;;;;;9.60;5.63;;;;;;;-3.30;100.00;99125.13;5035650;28;20418;-75
2024/01/17 02:26:44;;;;;;;12.90;8.88;;;;;;;-3.42;100.00;99130.41;5019304;28;20044;-75
2024/01/17 02:29:10;;;;;;;10.32;5.45;;;;;;;-3.58;100.00;99128.22;5002845;28;20047;-75
2024/01/17 02:31:36;;;;;;;15.80;9.85;;;;;;;-3.71;100.00;99127.53;5035517;28;20033;-75
2024/01/17 02:34:03;;;;;;;8.00;4.55;;;;;;;-3.66;100.00;99125.38;5035549;28;20048;-75
2024/01/17 02:36:28;;;;;;;8.55;4.75;;;;;;;-3.67;100.00;99126.34;5036050;28;20033;-75
2024/01/17 02:38:54;;;;;;;7.70;4.78;;;;;;;-3.71;100.00;99119.66;5019226;28;20379;-75
2024/01/17 02:41:19;;;;;;;7.68;3.50;;;;;;;-3.62;100.00;99116.31;5019181;28;20091;-74
2024/01/17 02:43:45;;;;;;;9.02;4.72;;;;;;;-3.52;100.00;99105.84;5035516;28;20043;-75
2024/01/17 02:46:12;;;;;;;6.55;4.38;;;;;;;-3.46;100.00;99107.16;5035551;28;20384;-75
2024/01/17 02:48:37;;;;;;;13.35;5.20;;;;;;;-3.40;100.00;99115.34;5002744;28;20128;-75
2024/01/17 02:51:03;;;;;;;8.85;4.65;;;;;;;-3.15;100.00;99108.91;5018839;28;20037;-75
2024/01/17 02:53:29;;;;;;;4.80;3.40;;;;;;;-2.92;100.00;99103.47;5018934;28;20094;-74
2024/01/17 02:55:55;;;;;;;9.95;4.18;;;;;;;-2.47;100.00;99109.19;5019622;28;20037;-74
2024/01/17 02:58:20;;;;;;;14.80;6.88;;;;;;;-2.01;100.00;99107.00;5018998;28;20490;-75
2024/01/17 03:00:46;;;;;;;20.73;8.30;;;;;;;-1.69;100.00;99097.97;5035107;28;20033;-75
2024/01/17 03:03:12;;;;;;;24.40;8.52;;;;;;;-1.40;100.00;99098.81;5018983;28;20037;-75
2024/01/17 03:05:38;;;;;;;14.35;5.07;;;;;;;-1.38;100.00;99104.75;5018618;28;20041;-75
2024/01/17 03:08:07;;;;;;;18.05;6.07;;;;;;;-1.78;100.00;99095.19;5019280;28;20043;-74
2024/01/17 03:10:32;;;;;;;22.27;7.40;;;;;;;-2.05;100.00;99089.78;5018631;28;20048;-75
2024/01/17 03:12:59;;;;;;;14.23;5.65;;;;;;;-2.04;100.00;99089.66;5038382;28;20045;-75
2024/01/17 03:15:24;;;;;;;25.48;8.00;;;;;;;-1.84;100.00;99087.88;5022989;28;20375;-75
2024/01/17 03:17:50;;;;;;;17.25;6.40;;;;;;;-1.53;100.00;99087.75;5022453;28;20033;-74
2024/01/17 03:20:17;;;;;;;27.90;8.27;;;;;;;-1.14;100.00;99088.53;5022096;28;20115;-74
2024/01/17 03:22:44;;;;;;;20.77;4.53;;;;;;;-0.99;100.00;99086.25;5039281;28;20082;-75
2024/01/17 03:25:11;;;;;;;37.83;12.50;;;;;;;-0.79;100.00;99081.75;5038989;28;20083;-75
2024/01/17 03:27:36;;;;;;;26.85;9.07;;;;;;;-0.76;100.00;99080.63;5022223;28;20068;-75
2024/01/17 03:30:07;;;;;;;40.55;12.85;;;;;;;-0.83;100.00;99082.19;5021937;28;20033;-75
2024/01/17 03:32:32;;;;;;;40.10;12.88;;;;;;;-0.83;100.00;99077.72;5038730;28;20029;-75
2024/01/17 03:34:59;;;;;;;26.52;7.53;;;;;;;-0.97;100.00;99071.13;5022068;28;20043;-75
2024/01/17 03:37:25;;;;;;;35.83;11.35;;;;;;;-1.12;100.00;99062.81;5022161;28;20048;-75
2024/01/17 03:39:51;;;;;;;26.13;8.85;;;;;;;-1.10;100.00;99065.31;5022023;28;20384;-75
2024/01/17 03:42:16;;;;;;;27.40;9.30;;;;;;;-1.20;100.00;99054.78;5038439;28;20033;-75
2024/01/17 03:44:43;;;;;;;27.30;9.52;;;;;;;-1.18;100.00;99058.13;5038328;28;20048;-75
2024/01/17 03:47:10;;;;;;;24.23;7.88;;;;;;;-1.25;100.00;99053.56;5038548;28;20231;-75
2024/01/17 03:49:36;;;;;;;27.50;8.60;;;;;;;-1.33;100.00;99049.81;5038162;28;20032;-75
2024/01/17 03:52:02;;;;;;;35.03;8.55;;;;;;;-1.34;100.00;99050.78;5038254;28;20049;-74
2024/01/17 03:54:27;;;;;;;36.55;8.85;;;;;;;-1.43;100.00;99043.75;5037778;28;20029;-75
2024/01/17 03:56:53;;;;;;;24.35;8.00;;;;;;;-1.42;100.00;99045.41;5021728;28;20067;-75
2024/01/17 03:59:19;;;;;;;27.35;8.80;;;;;;;-1.58;100.00;99048.63;5021668;28;20082;-75
2024/01/17 04:01:46;;;;;;;18.92;6.28;;;;;;;-1.63;100.00;99044.75;5021631;28;20383;-75
2024/01/17 04:04:11;;;;;;;30.48;8.18;;;;;;;-1.65;100.00;99046.69;5054428;28;20040;-75
2024/01/17 04:06:37;;;;;;;19.80;6.40;;;;;;;-1.79;100.00;99047.94;5021286;28;20037;-75
2024/01/17 04:09:03;;;;;;;28.55;7.75;;;;;;;-2.20;100.00;99041.94;5021377;28;20032;-75
2024/01/17 04:11:28;;;;;;;25.10;6.90;;;;;;;-2.56;100.00;99038.97;5037624;28;20024;-75
2024/01/17 04:13:54;;;;;;;10.00;4.32;;;;;;;-2.76;100.00;99045.94;5021671;28;20131;-75
2024/01/17 04:16:20;;;;;;;19.10;5.65;;;;;;;-2.66;100.00;99046.81;5053972;28;20452;-75
2024/01/17 04:18:46;;;;;;;24.50;6.20;;;;;;;-2.76;100.00;99045.13;5021002;28;20082;-74
2024/01/17 04:21:19;;;;;;;17.45;5.65;;;;;;;-2.81;100.00;99036.78;5037886;28;20036;-74
2024/01/17 04:23:46;;;;;;;16.70;4.80;;;;;;;-2.77;100.00;99035.56;5020821;28;20546;-74
2024/01/17 04:26:23;;;;;;;22.98;8.43;;;;;;;-2.73;100.00;99029.91;5005103;28;20045;-75
2024/01/17 04:28:50;;;;;;;27.77;7.97;;;;;;;-2.64;100.00;99040.63;5020818;28;20086;-75
2024/01/17 04:31:27;;;;;;;23.60;6.68;;;;;;;-2.54;100.00;99034.41;5037167;28;20475;-74
2024/01/17 04:33:53;;;;;;;15.20;4.65;;;;;;;-2.54;100.00;99029.16;5020899;28;20399;-75
2024/01/17 04:36:20;;;;;;;26.67;8.35;;;;;;;-2.29;100.00;99027.78;5037391;28;20491;-74
2024/01/17 04:38:46;;;;;;;26.98;6.90;;;;;;;-2.36;100.00;99033.75;5020587;28;20083;-75
2024/01/17 04:41:12;;;;;;;19.73;6.65;;;;;;;-2.55;100.00;99039.78;5037802;28;20045;-75
2024/01/17 04:43:45;;;;;;;27.58;9.23;;;;;;;-2.50;100.00;99027.88;5037227;28;20036;-75
2024/01/17 04:46:15;;;;;;;38.53;12.90;;;;;;;-2.26;100.00;99026.69;5020785;28;20119;-74
2024/01/17 04:48:41;;;;;;;32.67;11.40;;;;;;;-2.18;100.00;99028.66;5037103;28;20112;-75
2024/01/17 04:51:09;;;;;;;32.33;10.88;;;;;;;-2.14;100.00;99030.00;5036753;28;20060;-75
2024/01/17 04:53:42;;;;;;;24.58;7.63;;;;;;;-2.06;100.00;99017.84;5037361;28;20119;-75
2024/01/17 04:56:09;;;;;;;38.28;10.18;;;;;;;-1.94;100.00;99023.81;5038129;28;20120;-75
2024/01/17 04:58:38;;;;;;;25.05;8.02;;;;;;;-2.15;100.00;99017.84;5036500;28;20471;-75
2024/01/17 05:01:08;;;;;;;36.40;10.52;;;;;;;-2.09;100.00;99023.41;5020421;28;20036;-75
2024/01/17 05:03:34;;;;;;;49.00;13.32;;;;;;;-2.10;100.00;99026.97;5005193;28;20045;-74
2024/01/17 05:06:00;;;;;;;47.15;15.18;;;;;;;-2.05;100.00;99014.22;5036447;28;20040;-75
2024/01/17 05:08:25;;;;;;;38.25;11.82;;;;;;;-2.02;100.00;99016.59;5020310;28;20036;-75
2024/01/17 05:10:51;;;;;;;21.77;6.18;;;;;;;-2.13;100.00;99014.09;5020094;28;20029;-75
2024/01/17 05:13:17;;;;;;;27.02;8.68;;;;;;;-2.31;100.00;99011.28;5020002;28;20029;-75
2024/01/17 05:15:43;;;;;;;36.33;8.43;;;;;;;-2.48;100.00;99007.53;5020289;28;20037;-74
2024/01/17 05:18:09;;;;;;;25.55;6.68;;;;;;;-2.75;100.00;98995.03;5020246;28;20039;-74
2024/01/17 05:20:35;;;;;;;26.75;7.40;;;;;;;-2.95;100.00;99003.81;5020180;28;20053;-75
2024/01/17 05:23:00;;;;;;;22.80;5.93;;;;;;;-2.94;100.00;98998.44;5020165;28;20124;-74
2024/01/17 05:25:29;;;;;;;17.67;4.82;;;;;;;-2.85;100.00;98996.78;5020029;28;20114;-74
2024/01/17 05:27:55;;;;;;;23.98;6.60;;;;;;;-2.76;100.00;98989.88;5020044;28;20037;-74
2024/01/17 05:30:25;;;;;;;18.58;4.95;;;;;;;-2.79;100.00;98992.78;5035725;28;20128;-74
2024/01/17 05:32:52;;;;;;;17.25;4.93;;;;;;;-3.01;100.00;98997.28;5036585;28;20041;-74
2024/01/17 05:35:18;;;;;;;29.02;7.40;;;;;;;-3.11;100.00;98999.03;5035977;28;20036;-74
2024/01/17 05:37:44;;;;;;;21.88;6.10;;;;;;;-3.09;100.00;98997.13;5019950;28;20037;-74
2024/01/17 05:40:11;;;;;;;11.40;4.40;;;;;;;-3.10;100.00;98998.94;5020334;28;20063;-74
2024/01/17 05:42:40;;;;;;;23.02;6.60;;;;;;;-3.16;100.00;98993.34;5052815;28;20543;-75
2024/01/17 05:45:07;;;;;;;13.45;4.47;;;;;;;-3.21;100.00;98998.16;5035999;28;20467;-74
2024/01/17 05:47:35;;;;;;;24.35;5.60;;;;;;;-3.18;100.00;98998.72;5036554;28;20476;-74
2024/01/17 05:50:03;;;;;;;24.70;6.05;;;;;;;-3.19;100.00;98996.25;5035655;28;20104;-74
2024/01/17 05:52:29;;;;;;;17.30;4.05;;;;;;;-3.17;100.00;98995.16;5052438;28;20040;-74
2024/01/17 05:54:54;;;;;;;18.88;4.95;;;;;;;-3.39;100.00;99001.38;5035903;28;20037;-74
2024/01/17 05:57:20;;;;;;;17.63;4.55;;;;;;;-3.41;100.00;98994.63;5036021;28;20036;-74
2024/01/17 05:59:46;;;;;;;22.30;5.25;;;;;;;-3.45;100.00;98990.56;5019540;28;20035;-74
2024/01/17 06:02:11;;;;;;;14.98;4.18;;;;;;;-3.48;100.00;98983.78;5019545;28;20438;-74
2024/01/17 06:04:37;;;;;;;15.02;4.00;;;;;;;-3.67;100.00;98991.56;5019517;28;20033;-74
2024/01/17 06:07:03;;;;;;;9.80;3.25;;;;;;;-3.87;100.00;98987.97;5019399;28;20033;-74
2024/01/17 06:09:29;;;;;;;8.18;2.97;;;;;;;-4.06;100.00;98986.84;5019855;28;20041;-74
2024/01/17 06:11:55;;;;;;;12.50;3.30;;;;;;;-4.19;100.00;98991.44;5035886;28;20119;-74
2024/01/17 06:14:20;;;;;;;7.68;3.10;;;;;;;-4.27;100.00;98989.44;5019385;28;20128;-74
2024/01/17 06:16:47;;;;;;;13.73;3.65;;;;;;;-4.38;100.00;98988.66;5019408;28;20041;-75
2024/01/17 06:19:15;;;;;;;6.88;3.53;;;;;;;-4.33;100.00;98983.88;5051957;28;20471;-74
2024/01/17 06:21:41;;;;;;;14.07;3.45;;;;;;;-4.35;100.00;98986.63;5003628;28;20044;-74
2024/01/17 06:24:07;;;;;;;10.52;3.15;;;;;;;-4.35;100.00;98985.78;5019337;28;20041;-74
2024/01/17 06:26:33;;;;;;;13.45;4.38;;;;;;;-4.13;100.00;98980.44;5035249;28;20439;-74
2024/01/17 06:28:59;;;;;;;13.57;3.88;;;;;;;-3.85;100.00;98972.91;5035601;28;20071;-74
2024/01/17 06:31:25;;;;;;;18.77;5.63;;;;;;;-3.68;100.00;98982.81;5018992;28;20455;-74
2024/01/17 06:35:46;;;;;;;4.32;2.40;;;;;;;-3.45;100.00;98969.56;5019788;28;20486;-74
2024/01/17 06:37:59;;;;;;;10.48;3.10;;;;;;;-3.29;100.00;98980.41;4988015;28;20050;-74
2024/01/17 06:40:25;;;;;;;9.85;3.42;;;;;;;-3.47;100.00;98985.44;4943778;28;20045;-74
2024/01/17 06:42:51;;;;;;;8.93;3.50;;;;;;;-3.77;100.00;98986.25;4993210;28;20041;-74
2024/01/17 06:45:17;;;;;;;8.13;2.88;;;;;;;-4.05;100.00;98983.28;5019384;28;20093;-74
2024/01/17 06:47:43;;;;;;;6.60;2.80;;;;;;;-4.25;100.00;98987.53;5022511;28;20043;-74
2024/01/17 06:50:09;;;;;;;7.30;2.67;;;;;;;-4.49;100.00;98984.28;5022857;28;20391;-74
2024/01/17 06:52:35;;;;;;;5.90;2.97;;;;;;;-4.66;100.00;98996.09;5022902;28;20024;-74
2024/01/17 06:55:01;;;;;;;9.40;2.42;;;;;;;-4.73;100.00;98994.97;5023117;28;20037;-74
2024/01/17 06:57:27;;;;;;;8.35;2.55;;;;;;;-4.82;100.00;99003.53;5022650;28;20033;-75
2024/01/17 06:59:52;;;;;;;6.10;2.67;;;;;;;-5.03;100.00;99001.63;5022810;28;20032;-75
2024/01/17 07:02:44;;;;;;;8.45;3.08;;;;;;;-5.14;100.00;98994.63;5022389;28;20058;-75
2024/01/17 07:05:10;;;;;;;8.63;3.27;;;;;;;-5.21;100.00;99000.44;5052867;28;20040;-75
2024/01/17 07:07:38;;;;;;;7.70;2.67;;;;;;;-5.31;100.00;98995.94;5022672;28;20033;-75
2024/01/17 07:10:05;;;;;;;9.40;2.75;;;;;;;-5.39;100.00;99000.09;5022804;28;20383;-75
2024/01/17 07:12:31;;;;;;;4.82;2.10;;;;;;;-5.35;100.00;99001.53;5023044;28;20056;-75
2024/01/17 07:14:57;;;;;;;10.63;2.95;;;;;;;-5.43;100.00;99004.72;5038946;28;20442;-75
2024/01/17 07:17:22;;;;;;;3.92;1.95;;;;;;;-5.52;100.00;99002.81;5022439;28;20040;-75
2024/01/17 07:19:48;;;;;;;4.38;2.25;;;;;;;-5.59;100.00;99004.22;5022349;28;20036;-75
2024/01/17 07:22:14;;;;;;;6.05;2.85;;;;;;;-5.64;100.00;99006.38;5022342;28;20098;-74
2024/01/17 07:24:40;;;;;;;8.63;2.83;;;;;;;-5.68;100.00;99004.94;5022287;28;20075;-74
2024/01/17 07:27:05;;;;;;;12.40;3.20;;;;;;;-5.62;100.00;99005.28;5038688;28;20078;-75
2024/01/17 07:29:31;;;;;;;10.10;2.97;;;;;;;-5.18;100.00;99005.47;5038653;28;20033;-74
2024/01/17 07:31:57;;;;;;;5.57;2.55;;;;;;;-4.96;100.00;99005.47;5021987;28;20505;-74
2024/01/17 07:34:22;;;;;;;11.52;3.38;;;;;;;-4.80;100.00;99006.88;5038219;28;20440;-74
2024/01/17 07:36:49;;;;;;;7.50;2.95;;;;;;;-4.81;100.00;99008.66;5038405;28;20033;-74
2024/01/17 07:39:18;;;;;;;6.05;2.75;;;;;;;-4.79;100.00;99013.78;5054923;28;20024;-74
2024/01/17 07:41:44;;;;;;;6.13;2.83;;;;;;;-4.71;100.00;99017.47;5038415;28;20037;-74
2024/01/17 07:44:10;;;;;;;8.90;3.20;;;;;;;-4.59;100.00;99004.34;5021995;28;20199;-74
2024/01/17 07:46:36;;;;;;;17.42;4.45;;;;;;;-4.43;100.00;99005.59;5021876;28;20471;-74
2024/01/17 07:49:02;;;;;;;6.78;3.28;;;;;;;-4.44;100.00;99009.19;5038227;28;20029;-74
2024/01/17 07:51:28;;;;;;;5.07;2.25;;;;;;;-4.46;100.00;99016.34;5054588;28;20036;-74
2024/01/17 07:53:53;;;;;;;9.95;3.13;;;;;;;-4.50;100.00;99009.69;5021961;28;20047;-74
2024/01/17 07:56:19;;;;;;;11.75;4.03;;;;;;;-4.39;100.00;99002.72;5022539;28;20029;-74
2024/01/17 07:58:45;;;;;;;8.07;2.88;;;;;;;-4.40;100.00;99008.94;5020455;28;20464;-74
2024/01/17 08:01:11;;;;;;;11.18;3.92;;;;;;;-4.51;100.00;99005.38;5021716;28;20486;-74
2024/01/17 08:03:36;;;;;;;5.03;2.13;;;;;;;-4.57;100.00;99011.13;5021679;28;20131;-74
2024/01/17 08:06:02;;;;;;;7.47;2.67;;;;;;;-4.71;100.00;99003.50;5021730;28;20441;-74
2024/01/17 08:08:28;;;;;;;5.05;2.80;;;;;;;-4.91;100.00;99015.59;5037633;28;20037;-74
2024/01/17 08:10:55;;;;;;;6.82;3.17;;;;;;;-4.97;100.00;99021.31;5021128;28;20144;-74
2024/01/17 08:13:21;;;;;;;4.93;2.55;;;;;;;-4.98;100.00;99023.09;5037551;28;20029;-74
2024/01/17 08:15:46;;;;;;;6.70;3.42;;;;;;;-5.02;100.00;99020.84;5021450;28;20047;-74
2024/01/17 08:18:13;;;;;;;4.97;2.80;;;;;;;-5.10;100.00;99019.66;5053884;28;20041;-74
2024/01/17 08:20:39;;;;;;;8.25;2.67;;;;;;;-5.16;100.00;99020.13;5021985;28;20060;-75
2024/01/17 08:23:05;;;;;;;10.52;2.97;;;;;;;-5.00;100.00;99019.78;5037148;28;20033;-73
2024/01/17 08:25:32;;;;;;;5.70;2.95;;;;;;;-4.56;100.00;99020.66;5037827;28;20540;-74
2024/01/17 08:27:59;;;;;;;6.03;2.50;;;;;;;-4.53;100.00;99020.41;5021164;28;20025;-73
2024/01/17 08:30:25;;;;;;;7.18;2.58;;;;;;;-4.70;100.00;99032.25;5037348;28;20051;-73
2024/01/17 08:32:53;;;;;;;5.05;1.90;;;;;;;-4.83;100.00;99025.47;5021043;28;20135;-74
2024/01/17 08:35:22;;;;;;;8.32;3.17;;;;;;;-4.80;100.00;99023.44;5021355;28;20033;-74
2024/01/17 08:37:47;;;;;;;7.10;2.47;;;;;;;-4.91;100.00;99023.44;5020491;28;20395;-74
2024/01/17 08:40:13;;;;;;;4.75;2.60;;;;;;;-5.04;100.00;99025.38;5020900;28;20039;-74
2024/01/17 08:42:39;;;;;;;7.95;3.05;;;;;;;-5.13;100.00;99026.91;5021454;28;20037;-76
2024/01/17 08:45:06;;;;;;;13.02;3.08;;;;;;;-5.12;100.00;99025.97;5037744;28;20041;-75
2024/01/17 08:47:32;;;;;;;7.30;2.88;;;;;;;-5.09;100.00;99017.84;5020826;28;20025;-75
2024/01/17 08:50:00;;;;;;;7.93;2.70;;;;;;;-5.11;100.00;99025.84;5020662;28;20033;-75
2024/01/17 08:52:27;;;;;;;5.45;2.40;;;;;;;-5.25;100.00;99025.22;5037521;28;20067;-76
2024/01/17 08:54:57;;;;;;;5.35;2.40;;;;;;;-5.33;100.00;99029.25;5053139;28;20021;-76
2024/01/17 08:57:23;;;;;;;5.80;2.70;;;;;;;-5.40;100.00;99025.47;5020999;28;20471;-76
2024/01/17 08:59:49;;;;;;;5.25;2.70;;;;;;;-5.41;100.00;99028.19;5020211;28;20055;-76
2024/01/17 09:02:15;;;;;;;4.65;2.65;;;;;;;-5.36;100.00;99029.50;5054311;28;20024;-76
2024/01/17 09:04:41;;;;;;;4.95;2.42;;;;;;;-5.36;100.00;99032.13;5036972;28;20064;-77
2024/01/17 09:07:08;;;;;;;8.50;2.78;;;;;;;-5.37;100.00;99034.84;5036429;28;20029;-76
2024/01/17 09:09:49;;;;;;;5.90;2.97;;;;;;;-5.42;100.00;99024.75;5036605;28;20037;-77
2024/01/17 09:12:18;;;;;;;11.57;3.92;;;;;;;-5.38;100.00;99034.03;5020235;28;20506;-76
2024/01/17 09:14:44;;;;;;;4.97;2.63;;;;;;;-4.98;100.00;99030.13;5021124;28;20033;-76
2024/01/17 09:17:09;;;;;;;9.50;3.90;;;;;;;-4.78;100.00;99031.19;5020074;28;20510;-76
2024/01/17 09:19:35;;;;;;;9.60;3.83;;;;;;;-4.84;100.00;99039.53;5036044;28;20480;-77
2024/01/17 09:22:01;;;;;;;6.82;3.13;;;;;;;-5.04;100.00;99044.53;5020109;28;20021;-76
2024/01/17 09:24:27;;;;;;;6.03;3.35;;;;;;;-5.11;100.00;99036.34;5019831;28;20032;-76
2024/01/17 09:26:52;;;;;;;4.40;2.78;;;;;;;-5.15;100.00;99047.16;5019804;28;20041;-77
2024/01/17 09:29:19;;;;;;;6.18;3.25;;;;;;;-5.06;100.00;99054.28;5020013;28;20080;-76
2024/01/17 09:31:44;;;;;;;4.35;3.13;;;;;;;-4.94;100.00;99048.13;5019596;28;20040;-77
2024/01/17 09:34:11;;;;;;;7.28;3.65;;;;;;;-4.67;100.00;99055.59;5019995;28;20047;-76
2024/01/17 09:36:37;;;;;;;15.13;6.50;;;;;;;-3.98;100.00;99057.94;5035882;28;20048;-76
2024/01/17 09:39:03;;;;;;;17.73;5.07;;;;;;;-3.32;100.00;99055.09;5019841;28;20040;-76
2024/01/17 09:41:28;;;;;;;10.77;3.30;;;;;;;-2.92;100.00;99062.22;5019859;28;20040;-77
2024/01/17 09:43:56;;;;;;;34.85;6.28;;;;;;;-2.77;100.00;99060.09;5019788;28;20128;-77
2024/01/17 09:46:21;;;;;;;17.55;5.32;;;;;;;-2.62;100.00;99068.47;5019985;28;20040;-77
2024/01/17 09:48:47;;;;;;;33.55;7.32;;;;;;;-2.49;100.00;99068.19;5019627;28;20029;-77
2024/01/17 09:51:18;;;;;;;20.17;4.97;;;;;;;-2.44;100.00;99069.44;5052513;28;20059;-76
2024/01/17 09:53:46;;;;;;;41.83;6.65;;;;;;;-2.30;100.00;99070.03;5052325;28;20055;-76
2024/01/17 09:56:14;;;;;;;21.60;4.35;;;;;;;-2.18;100.00;99070.78;5036389;28;20029;-76
2024/01/17 09:58:43;;;;;;;79.55;10.40;;;;;;;-2.11;100.00;99071.91;5035724;28;20029;-77
2024/01/17 10:01:09;;;;;;;44.85;7.28;;;;;;;-2.11;100.00;99072.72;5019609;28;20497;-77
2024/01/17 10:03:36;;;;;;;14.52;4.28;;;;;;;-2.07;100.00;99068.84;5036101;28;20127;-76
2024/01/17 10:06:03;;;;;;;49.92;7.10;;;;;;;-2.01;100.00;99068.31;5020147;28;20041;-77
2024/01/17 10:08:29;;;;;;;11.68;3.17;;;;;;;-1.93;100.00;99078.16;5052353;28;20439;-77
2024/01/17 10:10:55;;;;;;;33.85;5.93;;;;;;;-1.79;100.00;99079.56;5019212;28;20037;-77
2024/01/17 10:13:20;;;;;;;26.10;4.57;;;;;;;-1.66;100.00;99081.91;5019480;28;20422;-77
2024/01/17 10:15:46;;;;;;;16.00;3.95;;;;;;;-1.55;100.00;99093.13;5020041;28;20048;-76
2024/01/17 10:18:12;;;;;;;5.63;2.50;;;;;;;-1.64;100.00;99087.84;5018904;28;20460;-77
2024/01/17 10:20:38;;;;;;;18.33;4.20;;;;;;;-1.66;100.00;99092.47;5035803;28;20037;-76
2024/01/17 10:23:06;;;;;;;11.00;4.20;;;;;;;-1.62;100.00;99096.47;5038862;28;20086;-76
2024/01/17 10:25:40;;;;;;;14.00;3.75;;;;;;;-1.61;100.00;99095.50;5024194;28;20479;-76
2024/01/17 10:28:07;;;;;;;7.70;2.15;;;;;;;-1.62;100.00;99102.56;5039952;28;20078;-76
2024/01/17 10:30:36;;;;;;;22.02;4.90;;;;;;;-1.58;100.00;99105.78;5039764;28;20033;-76
2024/01/17 10:33:02;;;;;;;16.60;3.25;;;;;;;-1.51;100.00;99106.84;5056246;28;20175;-76
2024/01/17 10:35:28;;;;;;;21.27;3.67;;;;;;;-1.47;100.00;99110.06;5023387;28;20044;-76
2024/01/17 10:37:54;;;;;;;15.73;3.78;;;;;;;-1.37;100.00;99113.53;5056395;28;20043;-76
2024/01/17 10:40:21;;;;;;;21.63;3.60;;;;;;;-1.23;100.00;99109.63;5023197;28;20112;-76
2024/01/17 10:42:46;;;;;;;35.50;5.43;;;;;;;-1.11;100.00;99113.78;5039542;28;20487;-76
2024/01/17 10:45:22;;;;;;;23.13;5.97;;;;;;;-1.23;100.00;99122.81;5023151;28;20045;-76
2024/01/17 10:47:48;;;;;;;34.08;6.40;;;;;;;-1.28;100.00;99117.94;5055686;28;20040;-76
2024/01/17 10:50:18;;;;;;;21.27;4.47;;;;;;;-1.13;100.00;99131.53;5055884;28;20033;-76
2024/01/17 10:52:45;;;;;;;22.52;4.78;;;;;;;-0.88;100.00;99128.28;5040044;28;20150;-76
2024/01/17 10:55:13;;;;;;;16.45;4.72;;;;;;;-1.05;100.00;99131.66;5022547;28;20037;-76
2024/01/17 10:57:47;;;;;;;24.73;5.60;;;;;;;-1.13;100.00;99132.38;5056088;28;20032;-75
2024/01/17 11:00:16;;;;;;;;;;;;;;;-0.96;100.00;99132.63;5056043;28;20036;-75
2024/01/17 11:02:46;;;;;;;14.60;4.13;;;;;;;-0.84;100.00;99128.03;5055887;28;19915;-75
2024/01/17 11:05:15;;;;;;;30.92;5.60;;;;;;;-0.71;100.00;99137.28;5039743;28;20029;-75
2024/01/17 11:07:41;;;;;;;10.27;3.95;;;;;;;-0.63;100.00;99133.94;5022958;28;20033;-75
2024/01/17 11:10:09;;;;;;;18.88;4.07;;;;;;;-0.59;100.00;99134.47;5022599;28;20029;-75
2024/01/17 11:12:39;;;;;;;30.13;7.45;;;;;;;-0.58;100.00;99139.63;5055458;28;20039;-75
2024/01/17 11:15:05;;;;;;;15.82;3.97;;;;;;;-0.62;100.00;99135.59;5038784;28;20383;-74
2024/01/17 11:17:36;;;;;;;5.13;2.05;;;;;;;-0.59;100.00;99129.19;5055178;28;20098;-75